Terminal Aerodrome Forecast
Issued by NWS

Home | Current Version | Previous Version | Graphics & Text | Print | Product List | Glossary On
Versions: 1 2 3 4 5 6 7 8 9 10 11 12 13 14 15 16 17 18 19 20
000
FTUS43 KMPX 250540
TAFAXN
TAF
KAXN 250540Z 2506/2606 10010KT P6SM BKN250
     FM251500 12011G17KT 5SM -TSRA BR SCT020 OVC050CB
     FM251800 13014G21KT P6SM VCSH OVC050
     FM252000 15013G20KT P6SM BKN050 OVC100
     FM260300 15006KT P6SM VCSH BKN070=

USA.gov is the U.S. government's official web portal to all federal, state and local government web resources and services.